Time;durP1;ratioP1;P1;durP2;ratioP2;P2;SDS_P1;SDS_P2;PMS_P1;PMS_P2;Temp;Humidity;BMP_temperature;BMP_pressure;BME280_temperature;BME280_humidity;BME280_pressure;Samples;Min_cycle;Max_cycle;Signal;HPM_P1;HPM_P2
2023/01/24 00:01:09;;;;;;;8.90;5.60;;;8.80;83.90;;;;;;6282263;22;20003;-83
2023/01/24 00:03:34;;;;;;;9.18;5.63;;;8.80;83.90;;;;;;6310153;22;20026;-82
2023/01/24 00:06:00;;;;;;;8.18;5.18;;;8.80;83.90;;;;;;6282849;22;20072;-82
2023/01/24 00:08:25;;;;;;;8.77;5.60;;;8.80;83.90;;;;;;6282473;22;20026;-82
2023/01/24 00:11:02;;;;;;;8.88;5.55;;;8.80;83.90;;;;;;6309797;22;20049;-82
2023/01/24 00:13:28;;;;;;;9.23;5.93;;;8.80;83.90;;;;;;6282530;22;20007;-82
2023/01/24 00:16:02;;;;;;;9.90;5.53;;;8.80;83.90;;;;;;6309304;22;20426;-82
2023/01/24 00:18:28;;;;;;;8.65;5.78;;;8.80;84.00;;;;;;6309312;22;20070;-82
2023/01/24 00:21:01;;;;;;;9.25;6.07;;;8.80;83.90;;;;;;6281701;22;20356;-83
2023/01/24 00:23:26;;;;;;;10.40;6.15;;;8.80;83.90;;;;;;6281669;22;20445;-83
2023/01/24 00:25:52;;;;;;;8.77;5.55;;;8.80;83.90;;;;;;6282591;22;19995;-83
2023/01/24 00:28:17;;;;;;;8.27;5.30;;;8.80;83.90;;;;;;6311205;22;19997;-82
2023/01/24 00:30:43;;;;;;;9.00;5.80;;;8.80;84.00;;;;;;6283268;22;20037;-83
2023/01/24 00:33:08;;;;;;;8.77;5.63;;;8.80;83.90;;;;;;6281555;22;19999;-83
2023/01/24 00:35:34;;;;;;;8.85;5.57;;;8.80;83.90;;;;;;6281174;22;20094;-83
2023/01/24 00:37:59;;;;;;;8.88;5.75;;;8.80;83.90;;;;;;6281107;22;20006;-82
2023/01/24 00:40:25;;;;;;;8.65;5.63;;;8.80;83.90;;;;;;6281622;22;20329;-83
2023/01/24 00:42:51;;;;;;;9.77;5.90;;;8.80;83.90;;;;;;6281593;22;20010;-82
2023/01/24 00:45:17;;;;;;;8.90;5.43;;;8.80;84.00;;;;;;6280944;22;19991;-82
2023/01/24 00:47:42;;;;;;;9.07;5.80;;;8.80;83.90;;;;;;6280560;22;20000;-82
2023/01/24 00:50:08;;;;;;;10.13;5.95;;;8.80;84.00;;;;;;6307946;22;20070;-82
2023/01/24 00:52:33;;;;;;;8.98;5.60;;;8.80;84.00;;;;;;6309418;22;19995;-82
2023/01/24 00:54:59;;;;;;;9.35;5.88;;;8.80;84.00;;;;;;6280946;22;20058;-82
2023/01/24 00:57:24;;;;;;;8.38;5.35;;;8.80;84.00;;;;;;6280571;22;19991;-83
2023/01/24 00:59:50;;;;;;;8.82;5.65;;;8.80;84.00;;;;;;6280629;22;20079;-83
2023/01/24 01:02:15;;;;;;;8.95;5.63;;;8.80;83.90;;;;;;6280941;22;19999;-81
2023/01/24 01:04:41;;;;;;;9.23;5.65;;;8.80;84.00;;;;;;6281890;22;20010;-83
2023/01/24 01:07:06;;;;;;;10.35;5.68;;;8.80;83.90;;;;;;6281844;22;20006;-84
2023/01/24 01:09:32;;;;;;;9.07;5.47;;;8.70;83.90;;;;;;6308569;22;20010;-82
2023/01/24 01:11:57;;;;;;;9.45;5.82;;;8.80;83.90;;;;;;6280918;22;20492;-82
2023/01/24 01:14:23;;;;;;;9.48;5.95;;;8.80;84.00;;;;;;6280840;22;20043;-82
2023/01/24 01:16:48;;;;;;;9.18;5.70;;;8.80;84.00;;;;;;6280657;22;20090;-82
2023/01/24 01:19:14;;;;;;;9.23;5.63;;;8.80;84.00;;;;;;6280591;22;19991;-81
2023/01/24 01:21:39;;;;;;;9.43;5.90;;;8.80;84.00;;;;;;6280626;22;20011;-82
2023/01/24 01:24:05;;;;;;;8.90;5.38;;;8.80;83.90;;;;;;6308443;22;19995;-82
2023/01/24 01:26:31;;;;;;;10.07;5.90;;;8.80;83.90;;;;;;6280554;22;19995;-82
2023/01/24 01:28:57;;;;;;;9.10;5.60;;;8.80;84.00;;;;;;6280731;22;19995;-83
2023/01/24 01:31:22;;;;;;;9.20;5.93;;;8.80;83.90;;;;;;6280972;22;20329;-82
2023/01/24 01:33:48;;;;;;;9.00;5.93;;;8.80;84.00;;;;;;6283042;22;19999;-83
2023/01/24 01:36:13;;;;;;;9.10;5.43;;;8.80;84.00;;;;;;6281288;22;20004;-84
2023/01/24 01:38:39;;;;;;;8.70;5.53;;;8.80;84.00;;;;;;6281790;22;20376;-82
2023/01/24 01:41:05;;;;;;;8.93;5.43;;;8.80;84.00;;;;;;6281042;22;20003;-82
2023/01/24 01:43:31;;;;;;;7.90;5.22;;;8.80;83.90;;;;;;6280386;22;20006;-83
2023/01/24 01:46:07;;;;;;;9.15;5.68;;;8.80;84.00;;;;;;6281653;22;19999;-84
2023/01/24 01:48:42;;;;;;;8.93;5.68;;;8.80;84.00;;;;;;6286057;22;20000;-84
2023/01/24 01:51:22;;;;;;;9.60;5.35;;;8.80;84.00;;;;;;6283022;22;19995;-84
2023/01/24 01:54:10;;;;;;;8.73;5.22;;;8.80;84.00;;;;;;6282777;22;19991;-83
2023/01/24 01:56:44;;;;;;;9.50;5.65;;;8.80;84.00;;;;;;6282017;22;20003;-83
2023/01/24 01:59:19;;;;;;;8.70;5.63;;;8.80;84.00;;;;;;6286398;22;20003;-80
2023/01/24 02:01:47;;;;;;;8.82;5.65;;;8.80;84.00;;;;;;6282078;22;20005;-82
2023/01/24 02:04:26;;;;;;;8.07;4.85;;;8.80;83.90;;;;;;6281880;22;20018;-80
2023/01/24 02:07:03;;;;;;;8.90;5.40;;;8.80;84.00;;;;;;6281783;22;20062;-81
2023/01/24 02:09:33;;;;;;;8.88;5.70;;;8.80;84.10;;;;;;6283203;22;20070;-82
2023/01/24 02:12:03;;;;;;;7.95;5.00;;;8.80;84.00;;;;;;6311213;22;19995;-81
2023/01/24 02:17:20;;;;;;;8.52;5.22;;;8.70;84.00;;;;;;6309506;22;20010;-83
2023/01/24 02:20:10;;;;;;;8.50;5.65;;;8.80;83.90;;;;;;6281789;22;19999;-82
2023/01/24 02:23:07;;;;;;;8.40;5.47;;;8.80;84.00;;;;;;6284420;22;20048;-84
2023/01/24 02:25:45;;;;;;;8.60;5.45;;;8.80;84.00;;;;;;6251577;22;19995;-83
2023/01/24 02:28:11;;;;;;;8.73;5.53;;;8.80;84.00;;;;;;6310602;22;19995;-84
2023/01/24 02:30:37;;;;;;;8.88;5.20;;;8.80;84.00;;;;;;6283314;22;20025;-82
2023/01/24 02:33:18;;;;;;;9.52;6.00;;;8.80;84.00;;;;;;6312478;22;20007;-82
2023/01/24 02:35:45;;;;;;;7.90;5.10;;;8.80;83.90;;;;;;6283095;22;20075;-83
2023/01/24 02:38:25;;;;;;;8.52;5.50;;;8.80;84.00;;;;;;6283414;22;20061;-83
2023/01/24 02:40:54;;;;;;;8.43;4.70;;;8.80;84.00;;;;;;6282987;22;20081;-83
2023/01/24 02:43:22;;;;;;;9.30;5.65;;;8.80;84.00;;;;;;6283012;22;20022;-82
2023/01/24 02:45:47;;;;;;;8.07;5.13;;;8.80;84.50;;;;;;6282355;22;19999;-83
2023/01/24 02:48:13;;;;;;;8.02;4.90;;;8.80;84.00;;;;;;6282653;22;20437;-83
2023/01/24 02:53:31;;;;;;;8.55;5.25;;;8.80;83.90;;;;;;6309963;22;20402;-82
2023/01/24 02:58:43;;;;;;;7.72;5.07;;;8.80;84.00;;;;;;6309807;22;20010;-83
2023/01/24 03:01:09;;;;;;;8.68;5.53;;;8.80;83.90;;;;;;6282744;22;20003;-82
2023/01/24 03:03:34;;;;;;;8.32;5.00;;;8.80;84.00;;;;;;6258923;22;20038;-82
2023/01/24 03:06:00;;;;;;;7.97;5.00;;;8.70;83.90;;;;;;6252035;22;20003;-83
2023/01/24 03:08:28;;;;;;;8.00;4.90;;;8.80;83.90;;;;;;6280384;22;19996;-83
2023/01/24 03:10:54;;;;;;;7.70;4.85;;;8.80;83.90;;;;;;6251293;22;19996;-83
2023/01/24 03:35:15;;;;;;;7.75;4.80;;;8.80;83.80;;;;;;6280739;22;20002;-82
2023/01/24 03:40:24;;;;;;;9.60;4.47;;;8.80;83.80;;;;;;6279919;22;20054;-82
2023/01/24 03:42:50;;;;;;;7.72;4.63;;;8.80;83.90;;;;;;6249965;22;20079;-81
2023/01/24 03:45:22;;;;;;;7.63;4.72;;;8.80;83.80;;;;;;6250875;22;19995;-83
2023/01/24 03:47:54;;;;;;;8.52;5.18;;;8.80;83.90;;;;;;6250646;22;20034;-83
2023/01/24 03:53:23;;;;;;;7.25;4.60;;;8.80;83.90;;;;;;6278302;22;20012;-82
2023/01/24 03:56:00;;;;;;;7.90;4.70;;;8.70;83.70;;;;;;6277614;22;20003;-81
2023/01/24 03:58:27;;;;;;;8.20;4.75;;;8.80;83.90;;;;;;6277727;22;20006;-81
2023/01/24 04:00:53;;;;;;;8.15;5.15;;;8.80;83.90;;;;;;6250563;22;20004;-83
2023/01/24 04:03:18;;;;;;;7.22;4.28;;;8.80;83.90;;;;;;6251294;22;20472;-83
2023/01/24 04:05:46;;;;;;;7.85;4.70;;;8.80;83.90;;;;;;6278524;22;20002;-81
2023/01/24 04:08:12;;;;;;;7.82;4.88;;;8.80;83.80;;;;;;6253044;22;19996;-83
2023/01/24 04:10:38;;;;;;;7.85;4.63;;;8.80;83.90;;;;;;6255424;22;19995;-83
2023/01/24 04:13:03;;;;;;;8.63;4.70;;;8.80;83.90;;;;;;6281894;22;19996;-86
2023/01/24 04:15:31;;;;;;;7.47;4.55;;;8.80;83.90;;;;;;6280594;22;19999;-82
2023/01/24 04:17:58;;;;;;;7.13;4.32;;;8.70;83.80;;;;;;6279687;22;20003;-83
2023/01/24 04:20:25;;;;;;;8.05;4.68;;;8.80;83.90;;;;;;6250750;22;19999;-84
2023/01/24 04:22:51;;;;;;;7.10;4.10;;;8.80;83.90;;;;;;6251958;22;20077;-82
2023/01/24 04:25:17;;;;;;;7.07;4.45;;;8.80;83.90;;;;;;6250355;22;19992;-83
2023/01/24 04:27:42;;;;;;;7.70;4.50;;;8.80;83.90;;;;;;6246813;22;20046;-79
2023/01/24 04:30:10;;;;;;;7.70;4.78;;;8.80;83.80;;;;;;6245860;22;20000;-76
2023/01/24 04:32:36;;;;;;;8.13;4.78;;;8.80;83.80;;;;;;6245949;22;19995;-78
2023/01/24 04:35:03;;;;;;;7.88;4.78;;;8.80;83.90;;;;;;6272796;22;20483;-80
2023/01/24 04:37:29;;;;;;;7.63;4.57;;;8.80;83.90;;;;;;6246689;22;20070;-79
2023/01/24 04:39:55;;;;;;;7.45;4.45;;;8.80;83.90;;;;;;6243136;22;20000;-79
2023/01/24 04:42:20;;;;;;;7.90;4.45;;;8.80;83.90;;;;;;6245769;22;20026;-78
2023/01/24 04:44:46;;;;;;;6.97;4.38;;;8.80;83.90;;;;;;6245165;22;20057;-80
2023/01/24 04:47:11;;;;;;;7.55;4.65;;;8.80;83.90;;;;;;6245795;22;20614;-81
2023/01/24 04:49:37;;;;;;;8.02;4.82;;;8.80;83.90;;;;;;6246707;22;20000;-80
2023/01/24 04:52:03;;;;;;;7.63;4.40;;;8.80;83.90;;;;;;6243093;22;20600;-79
2023/01/24 04:54:28;;;;;;;7.22;4.43;;;8.80;83.90;;;;;;6244970;22;20011;-78
2023/01/24 04:56:54;;;;;;;7.07;4.03;;;8.80;83.80;;;;;;6244790;22;20003;-78
2023/01/24 04:59:19;;;;;;;7.38;4.28;;;8.80;83.80;;;;;;6246594;22;20030;-77
2023/01/24 05:01:44;;;;;;;7.28;4.35;;;8.80;83.80;;;;;;6272751;22;20010;-81
2023/01/24 05:04:10;;;;;;;7.82;4.07;;;8.80;83.80;;;;;;6246020;22;20086;-79
2023/01/24 05:06:35;;;;;;;7.45;4.65;;;8.80;83.80;;;;;;6247074;22;20000;-79
2023/01/24 05:09:01;;;;;;;7.63;4.55;;;8.80;83.90;;;;;;6245613;22;20008;-77
2023/01/24 05:11:27;;;;;;;7.30;4.13;;;8.80;83.90;;;;;;6245565;22;20348;-78
2023/01/24 05:13:52;;;;;;;6.88;4.40;;;8.80;83.80;;;;;;6246336;22;20011;-81
2023/01/24 05:16:18;;;;;;;8.05;4.78;;;8.80;83.80;;;;;;6245529;22;20007;-82
2023/01/24 05:18:44;;;;;;;7.97;4.88;;;8.80;83.90;;;;;;6248715;22;20094;-83
2023/01/24 05:21:15;;;;;;;7.65;4.53;;;8.80;83.80;;;;;;6248750;22;20046;-79
2023/01/24 05:23:41;;;;;;;7.43;4.28;;;8.80;83.80;;;;;;6275440;22;20015;-79
2023/01/24 05:26:07;;;;;;;7.07;4.13;;;8.80;83.90;;;;;;6248731;22;20099;-81
2023/01/24 05:28:33;;;;;;;6.75;4.00;;;8.80;83.90;;;;;;6252527;22;20004;-79
2023/01/24 05:30:59;;;;;;;6.80;3.95;;;8.80;83.90;;;;;;6251656;22;20010;-81
2023/01/24 05:33:25;;;;;;;6.88;3.92;;;8.80;83.80;;;;;;6247429;22;20030;-77
2023/01/24 05:35:57;;;;;;;7.47;4.25;;;8.80;83.80;;;;;;6247286;22;20508;-77
2023/01/24 05:38:22;;;;;;;7.55;4.38;;;8.80;83.80;;;;;;6247098;22;20042;-77
2023/01/24 05:40:48;;;;;;;7.07;4.30;;;8.80;83.90;;;;;;6247342;22;20008;-79
2023/01/24 05:43:13;;;;;;;7.07;4.20;;;8.80;83.90;;;;;;6271490;22;20803;-76
2023/01/24 05:45:39;;;;;;;7.75;4.43;;;8.80;83.90;;;;;;6271675;22;20003;-76
2023/01/24 05:48:05;;;;;;;7.22;4.07;;;8.80;83.90;;;;;;6273125;22;20000;-79
2023/01/24 05:50:31;;;;;;;6.95;4.00;;;8.80;83.80;;;;;;6245940;22;20008;-78
2023/01/24 05:52:56;;;;;;;6.85;3.92;;;8.80;83.90;;;;;;6246361;22;19996;-79
2023/01/24 05:55:22;;;;;;;7.20;4.20;;;8.80;83.90;;;;;;6246131;22;20034;-76
2023/01/24 05:57:47;;;;;;;7.05;4.03;;;8.80;83.80;;;;;;6274430;22;20004;-85
2023/01/24 06:00:13;;;;;;;6.55;3.92;;;8.80;83.80;;;;;;6249981;22;20057;-83
2023/01/24 06:02:39;;;;;;;7.65;4.50;;;8.80;83.80;;;;;;6250569;22;20050;-80
2023/01/24 06:05:05;;;;;;;7.05;4.15;;;8.80;83.80;;;;;;6250315;22;20000;-80
2023/01/24 06:07:30;;;;;;;7.13;4.22;;;8.80;83.80;;;;;;6250441;22;20008;-80
2023/01/24 06:09:56;;;;;;;7.20;4.30;;;8.80;83.80;;;;;;6249924;22;20006;-84
2023/01/24 06:12:21;;;;;;;6.47;3.90;;;8.80;83.90;;;;;;6250451;22;20057;-82
2023/01/24 06:14:46;;;;;;;6.60;4.10;;;8.80;83.80;;;;;;6252400;22;20456;-84
2023/01/24 06:17:12;;;;;;;6.72;3.92;;;8.80;83.80;;;;;;6248973;22;20064;-83
2023/01/24 06:19:38;;;;;;;7.72;4.63;;;8.80;83.90;;;;;;6249135;22;20010;-84
2023/01/24 06:22:35;;;;;;;6.63;3.78;;;8.80;83.90;;;;;;6249147;22;20003;-83
2023/01/24 06:25:00;;;;;;;7.43;4.30;;;8.80;83.90;;;;;;6241971;22;20012;-80
2023/01/24 06:27:26;;;;;;;6.82;4.05;;;8.80;83.90;;;;;;6276586;22;20015;-81
2023/01/24 06:29:52;;;;;;;6.88;3.88;;;8.80;83.90;;;;;;6250810;22;19995;-85
2023/01/24 06:32:44;;;;;;;7.38;4.50;;;8.80;83.80;;;;;;6276884;22;20389;-83
2023/01/24 06:35:32;;;;;;;7.45;4.03;;;8.80;83.90;;;;;;6250020;22;20023;-82
2023/01/24 06:37:58;;;;;;;7.38;4.20;;;8.80;83.90;;;;;;6281335;22;20004;-83
2023/01/24 06:40:24;;;;;;;7.15;4.30;;;8.80;83.90;;;;;;6254543;22;20011;-81
2023/01/24 06:42:51;;;;;;;6.93;3.92;;;8.70;83.80;;;;;;6255513;22;20018;-83
2023/01/24 06:45:17;;;;;;;7.32;3.92;;;8.70;83.80;;;;;;6256922;22;20030;-81
2023/01/24 06:47:43;;;;;;;6.80;3.65;;;8.70;83.80;;;;;;6255189;22;20441;-82
2023/01/24 06:50:22;;;;;;;6.70;3.97;;;8.80;83.90;;;;;;6253458;22;20010;-83
2023/01/24 06:52:49;;;;;;;6.55;3.67;;;8.70;83.80;;;;;;6253694;22;20004;-78
2023/01/24 06:55:15;;;;;;;7.30;4.40;;;8.80;83.80;;;;;;6254512;22;19999;-84
2023/01/24 06:57:40;;;;;;;7.00;4.15;;;8.70;83.80;;;;;;6257145;22;20393;-84
2023/01/24 07:00:06;;;;;;;7.60;4.07;;;8.80;83.80;;;;;;6257040;22;20007;-82
2023/01/24 07:02:32;;;;;;;7.43;4.20;;;8.70;83.50;;;;;;6255847;22;20468;-86
2023/01/24 07:04:58;;;;;;;7.10;4.10;;;8.70;83.60;;;;;;6255190;22;20000;-84
2023/01/24 07:07:23;;;;;;;9.27;4.60;;;8.80;83.70;;;;;;6254156;22;20091;-86
2023/01/24 07:09:49;;;;;;;9.13;4.65;;;8.80;83.70;;;;;;6278616;22;20083;-85
2023/01/24 07:12:14;;;;;;;6.82;4.15;;;8.80;83.80;;;;;;6254725;22;20000;-84
2023/01/24 07:14:40;;;;;;;6.45;3.88;;;8.70;83.70;;;;;;6282681;22;20371;-85
2023/01/24 07:17:05;;;;;;;6.82;3.63;;;8.70;83.80;;;;;;6254410;22;20011;-84
2023/01/24 07:19:31;;;;;;;8.93;4.22;;;8.80;83.70;;;;;;6255954;22;20049;-84
2023/01/24 07:21:58;;;;;;;6.47;3.65;;;8.80;83.70;;;;;;6254756;22;19999;-85
2023/01/24 07:24:26;;;;;;;6.93;3.88;;;8.80;83.80;;;;;;6255072;22;20000;-85
2023/01/24 07:26:53;;;;;;;6.85;3.75;;;8.80;83.70;;;;;;6254352;22;20068;-85
2023/01/24 07:29:19;;;;;;;9.05;4.10;;;8.80;83.80;;;;;;6281677;22;19995;-84
2023/01/24 07:31:44;;;;;;;6.40;3.70;;;8.70;83.70;;;;;;6254449;22;20003;-84
2023/01/24 07:34:10;;;;;;;7.20;3.88;;;8.80;83.80;;;;;;6255554;22;20014;-84
2023/01/24 07:36:36;;;;;;;7.03;4.13;;;8.70;83.80;;;;;;6252848;22;20091;-85
2023/01/24 07:39:01;;;;;;;7.43;3.95;;;8.80;83.80;;;;;;6251733;22;20142;-84
2023/01/24 07:41:27;;;;;;;7.57;4.00;;;8.70;83.70;;;;;;6250376;22;20333;-84
2023/01/24 07:43:53;;;;;;;7.22;3.90;;;8.70;83.70;;;;;;6251784;22;20004;-84
2023/01/24 07:46:20;;;;;;;6.57;3.92;;;8.80;83.80;;;;;;6252138;22;20007;-85
2023/01/24 07:48:45;;;;;;;7.35;3.78;;;8.70;83.80;;;;;;6253278;22;19999;-84
2023/01/24 07:51:11;;;;;;;6.40;3.63;;;8.70;83.80;;;;;;6253507;22;20330;-85
2023/01/24 07:53:36;;;;;;;6.90;3.70;;;8.80;83.80;;;;;;6278454;22;20338;-85
2023/01/24 07:56:03;;;;;;;6.50;3.60;;;8.70;83.80;;;;;;6277610;22;20078;-85
2023/01/24 07:58:29;;;;;;;7.32;4.03;;;8.70;83.70;;;;;;6252474;22;20003;-84
2023/01/24 08:00:55;;;;;;;6.82;3.80;;;8.70;83.80;;;;;;6253731;22;20008;-84
2023/01/24 08:03:21;;;;;;;6.68;3.92;;;8.80;83.90;;;;;;6253415;22;20338;-84
2023/01/24 08:05:46;;;;;;;6.82;3.75;;;8.70;83.80;;;;;;6252905;22;20002;-84
2023/01/24 08:08:12;;;;;;;6.88;3.83;;;8.80;83.80;;;;;;6252577;22;20365;-84
2023/01/24 08:10:37;;;;;;;6.47;3.60;;;8.80;83.90;;;;;;6252129;22;20315;-84
2023/01/24 08:13:03;;;;;;;6.65;3.63;;;8.80;83.80;;;;;;6251048;22;20004;-85
2023/01/24 08:15:28;;;;;;;6.40;3.63;;;8.80;83.80;;;;;;6251569;22;20011;-84
2023/01/24 08:17:54;;;;;;;6.45;3.60;;;8.70;83.80;;;;;;6250631;22;20086;-85
2023/01/24 08:20:20;;;;;;;6.70;3.80;;;8.80;83.90;;;;;;6251304;22;20008;-85
2023/01/24 08:22:46;;;;;;;7.40;3.97;;;8.80;83.80;;;;;;6250990;22;20384;-84
2023/01/24 08:25:11;;;;;;;7.03;3.72;;;8.80;83.90;;;;;;6251594;22;20000;-83
2023/01/24 08:27:40;;;;;;;6.63;3.70;;;8.70;83.80;;;;;;6251505;22;20396;-84
2023/01/24 08:30:07;;;;;;;5.95;3.38;;;8.80;83.80;;;;;;6251870;22;20000;-84
2023/01/24 08:32:33;;;;;;;6.68;3.83;;;8.80;83.80;;;;;;6251682;22;19995;-85
2023/01/24 08:34:58;;;;;;;6.40;3.72;;;8.70;83.80;;;;;;6251960;22;19996;-84
2023/01/24 08:37:24;;;;;;;6.13;3.58;;;8.80;83.90;;;;;;6277984;22;20457;-85
2023/01/24 08:39:49;;;;;;;6.65;3.85;;;8.80;83.90;;;;;;6277000;22;20038;-85
2023/01/24 08:42:15;;;;;;;6.35;3.63;;;8.80;83.90;;;;;;6250686;22;20430;-84
2023/01/24 08:44:40;;;;;;;6.38;4.00;;;8.70;83.80;;;;;;6250716;22;20030;-84
2023/01/24 08:47:06;;;;;;;6.18;3.58;;;8.80;83.90;;;;;;6250319;22;19999;-85
2023/01/24 08:49:31;;;;;;;6.28;3.58;;;8.80;83.90;;;;;;6250048;22;20004;-85
2023/01/24 08:52:00;;;;;;;5.93;3.42;;;8.80;83.80;;;;;;6251551;22;19999;-85
2023/01/24 08:54:30;;;;;;;6.38;3.75;;;8.80;83.80;;;;;;6251587;22;20023;-84
2023/01/24 08:56:56;;;;;;;6.25;3.58;;;8.70;83.80;;;;;;6253812;22;20030;-85
2023/01/24 08:59:22;;;;;;;6.35;3.45;;;8.70;83.80;;;;;;6254229;22;20458;-84
2023/01/24 09:01:47;;;;;;;6.15;3.63;;;8.80;83.80;;;;;;6253660;22;20061;-84
2023/01/24 09:04:12;;;;;;;6.53;3.92;;;8.80;83.90;;;;;;6283134;22;20011;-83
2023/01/24 09:06:38;;;;;;;5.97;3.17;;;8.80;83.80;;;;;;6283928;22;20338;-84
2023/01/24 09:09:03;;;;;;;6.53;3.60;;;8.70;83.80;;;;;;6314510;22;19999;-86
2023/01/24 09:11:30;;;;;;;6.55;3.45;;;8.80;83.80;;;;;;6291405;22;20003;-85
2023/01/24 09:13:56;;;;;;;7.10;4.25;;;8.70;83.70;;;;;;6291312;22;20011;-85
2023/01/24 09:16:21;;;;;;;6.30;3.60;;;8.80;83.80;;;;;;6290058;22;20007;-85
2023/01/24 09:18:49;;;;;;;6.35;3.72;;;8.80;83.80;;;;;;6289617;22;20013;-85
2023/01/24 09:21:15;;;;;;;5.95;3.58;;;8.80;83.80;;;;;;6289893;22;20003;-85
2023/01/24 09:23:40;;;;;;;6.15;3.55;;;8.80;83.80;;;;;;6289538;22;20011;-85
2023/01/24 09:26:06;;;;;;;6.53;3.70;;;8.70;83.70;;;;;;6285341;22;20434;-85
2023/01/24 09:28:33;;;;;;;6.40;3.60;;;8.80;83.80;;;;;;6288275;22;20034;-82
2023/01/24 09:30:58;;;;;;;6.68;3.80;;;8.80;83.80;;;;;;6288974;22;19995;-85
2023/01/24 09:33:24;;;;;;;6.78;3.58;;;8.70;83.80;;;;;;6288648;22;20350;-84
2023/01/24 09:35:58;;;;;;;6.57;3.67;;;8.80;83.80;;;;;;6287377;22;20067;-84
2023/01/24 09:38:26;;;;;;;5.28;3.03;;;8.80;83.80;;;;;;6287700;22;20011;-84
2023/01/24 09:40:56;;;;;;;5.30;3.08;;;8.80;83.80;;;;;;6287343;22;20109;-84
2023/01/24 09:43:49;;;;;;;6.28;3.50;;;8.80;83.80;;;;;;6287004;22;20026;-85
2023/01/24 09:46:30;;;;;;;6.18;3.40;;;8.80;83.80;;;;;;6286569;22;20026;-85
2023/01/24 09:49:30;;;;;;;5.90;3.13;;;8.80;83.80;;;;;;6286165;22;19999;-84
2023/01/24 09:51:56;;;;;;;6.28;3.60;;;8.80;83.70;;;;;;6286758;22;20004;-86
2023/01/24 09:54:28;;;;;;;5.90;3.25;;;8.80;83.80;;;;;;6286400;22;20006;-85
2023/01/24 09:56:55;;;;;;;6.40;3.75;;;8.80;83.80;;;;;;6285893;22;20384;-86
2023/01/24 09:59:41;;;;;;;5.88;3.30;;;8.80;83.80;;;;;;6287877;22;20023;-85
2023/01/24 10:02:18;;;;;;;5.95;3.45;;;8.80;83.70;;;;;;6317358;22;20003;-86
2023/01/24 10:04:45;;;;;;;6.20;3.55;;;8.80;83.70;;;;;;6317532;22;20023;-86
2023/01/24 10:07:46;;;;;;;6.00;3.30;;;8.80;83.70;;;;;;6315835;22;20003;-85
2023/01/24 10:10:30;;;;;;;5.72;3.42;;;8.80;83.80;;;;;;6289411;22;20003;-85
2023/01/24 10:13:16;;;;;;;5.93;3.28;;;8.80;83.80;;;;;;6288747;22;20019;-85
2023/01/24 10:16:11;;;;;;;6.10;3.13;;;8.80;83.80;;;;;;6287933;22;20027;-86
2023/01/24 10:18:56;;;;;;;5.38;3.20;;;8.80;83.80;;;;;;6287809;22;20060;-85
2023/01/24 10:22:00;;;;;;;6.35;3.45;;;8.80;83.70;;;;;;6288223;22;20000;-85
2023/01/24 10:24:32;;;;;;;6.25;3.50;;;8.80;83.80;;;;;;6313429;22;20024;-85
2023/01/24 10:26:59;;;;;;;6.32;3.45;;;8.80;83.80;;;;;;6315111;22;20021;-84
2023/01/24 10:29:29;;;;;;;5.60;3.20;;;8.80;83.80;;;;;;6314510;22;19999;-84
2023/01/24 10:32:15;;;;;;;6.85;3.33;;;8.80;83.80;;;;;;6284782;22;20006;-84
2023/01/24 10:34:47;;;;;;;5.45;3.10;;;8.80;83.70;;;;;;6283228;22;20049;-84
2023/01/24 10:37:23;;;;;;;5.72;3.33;;;8.80;83.80;;;;;;6286692;22;20007;-85
2023/01/24 10:39:49;;;;;;;6.20;3.60;;;8.80;83.80;;;;;;6286305;22;20010;-84
2023/01/24 10:42:23;;;;;;;5.80;3.08;;;8.80;83.70;;;;;;6286034;22;20004;-84
2023/01/24 10:44:49;;;;;;;6.43;3.42;;;8.80;83.80;;;;;;6285564;22;20007;-86
2023/01/24 10:47:36;;;;;;;5.57;3.25;;;8.80;83.80;;;;;;6312697;22;19999;-83
2023/01/24 10:50:06;;;;;;;5.90;2.92;;;8.80;83.70;;;;;;6285727;22;20010;-85
2023/01/24 10:52:33;;;;;;;5.63;3.30;;;8.80;83.70;;;;;;6285642;22;19999;-84
2023/01/24 10:55:01;;;;;;;5.93;3.40;;;8.80;83.80;;;;;;6285489;22;20007;-85
2023/01/24 10:57:36;;;;;;;5.78;3.20;;;8.80;83.80;;;;;;6285065;22;20011;-84
2023/01/24 11:00:15;;;;;;;5.75;3.00;;;8.80;83.70;;;;;;6285386;22;20322;-85
2023/01/24 11:02:42;;;;;;;5.97;3.22;;;8.80;83.80;;;;;;6312571;22;20037;-85
2023/01/24 11:05:13;;;;;;;5.53;3.10;;;8.80;83.80;;;;;;6284704;22;20033;-83
2023/01/24 11:07:45;;;;;;;6.03;3.20;;;8.80;83.80;;;;;;6283549;22;20090;-85
2023/01/24 11:10:24;;;;;;;5.70;2.92;;;8.80;83.80;;;;;;6285117;22;20086;-84
2023/01/24 11:13:01;;;;;;;5.25;2.90;;;8.80;83.80;;;;;;6311427;22;20003;-85
2023/01/24 11:15:33;;;;;;;6.15;3.40;;;8.80;83.80;;;;;;6284344;22;20007;-84
2023/01/24 11:18:07;;;;;;;5.10;2.88;;;8.80;83.80;;;;;;6283588;22;20007;-84
2023/01/24 11:20:35;;;;;;;7.20;2.85;;;8.80;84.30;;;;;;6284005;22;19995;-84
2023/01/24 11:23:26;;;;;;;5.05;2.97;;;8.80;83.80;;;;;;6282867;22;20445;-84
2023/01/24 11:26:04;;;;;;;6.07;2.95;;;8.80;83.80;;;;;;6281909;22;19995;-84
2023/01/24 11:28:37;;;;;;;5.70;3.10;;;8.70;83.80;;;;;;6311349;22;20456;-84
2023/01/24 11:31:14;;;;;;;5.47;2.95;;;8.80;83.80;;;;;;6283484;22;20434;-84
2023/01/24 11:33:40;;;;;;;6.25;2.72;;;8.80;83.80;;;;;;6283615;22;20014;-84
2023/01/24 11:36:25;;;;;;;5.85;3.03;;;8.80;83.80;;;;;;6310991;22;20007;-84
2023/01/24 11:38:54;;;;;;;5.53;3.03;;;8.80;83.80;;;;;;6312037;22;19999;-84
2023/01/24 11:41:30;;;;;;;5.25;2.85;;;8.80;83.90;;;;;;6309750;22;20060;-85
2023/01/24 11:44:35;;;;;;;5.32;3.10;;;8.80;83.80;;;;;;6281616;22;20007;-85
2023/01/24 11:47:17;;;;;;;5.20;2.90;;;8.80;83.80;;;;;;6275204;22;19999;-85
2023/01/24 11:50:17;;;;;;;5.20;2.60;;;8.80;83.80;;;;;;6282332;22;20003;-85
2023/01/24 11:52:56;;;;;;;4.93;2.70;;;8.80;83.80;;;;;;6283016;22;20081;-85
2023/01/24 11:55:43;;;;;;;5.22;3.03;;;8.80;83.80;;;;;;6309588;22;20000;-84
2023/01/24 11:58:23;;;;;;;5.07;2.85;;;8.80;83.80;;;;;;6282291;22;20057;-84
2023/01/24 12:00:56;;;;;;;6.10;3.22;;;8.80;83.80;;;;;;6309718;22;20003;-84
2023/01/24 12:03:40;;;;;;;5.00;2.55;;;8.80;83.80;;;;;;6283036;22;20090;-84
2023/01/24 12:06:32;;;;;;;5.32;2.80;;;8.80;83.80;;;;;;6282483;22;20006;-83
2023/01/24 12:09:03;;;;;;;5.43;3.20;;;8.80;83.80;;;;;;6281506;22;20026;-85
2023/01/24 12:11:35;;;;;;;5.43;2.90;;;8.80;83.80;;;;;;6281006;22;19999;-84
2023/01/24 12:14:19;;;;;;;5.35;2.90;;;8.80;83.80;;;;;;6281477;22;20133;-84
2023/01/24 12:17:16;;;;;;;4.82;2.50;;;8.80;83.80;;;;;;6307848;22;20010;-85
2023/01/24 12:20:01;;;;;;;5.45;2.72;;;8.80;83.80;;;;;;6282073;22;20010;-84
2023/01/24 12:22:28;;;;;;;5.82;3.15;;;8.80;83.90;;;;;;6281586;22;20035;-85
2023/01/24 12:25:01;;;;;;;5.22;2.58;;;8.80;83.90;;;;;;6281222;22;20003;-84
2023/01/24 12:27:34;;;;;;;5.22;3.08;;;8.80;83.90;;;;;;6281586;22;20445;-84
2023/01/24 12:30:13;;;;;;;5.07;2.70;;;8.80;83.90;;;;;;6281939;22;20005;-84
2023/01/24 12:32:52;;;;;;;4.30;2.45;;;8.80;83.80;;;;;;6310011;22;20015;-84
2023/01/24 12:35:33;;;;;;;4.72;2.78;;;8.80;83.80;;;;;;6280143;22;20049;-86
2023/01/24 12:38:04;;;;;;;4.88;2.53;;;8.80;83.80;;;;;;6310727;22;20006;-86
2023/01/24 12:40:45;;;;;;;5.10;2.67;;;8.80;83.80;;;;;;6289268;22;20003;-86
2023/01/24 12:43:30;;;;;;;5.07;2.63;;;8.80;83.80;;;;;;6315439;22;20003;-86
2023/01/24 12:46:13;;;;;;;5.05;2.80;;;8.80;83.80;;;;;;6313761;22;20081;-86
2023/01/24 12:49:24;;;;;;;5.05;2.80;;;8.80;83.80;;;;;;6287944;22;20424;-85
2023/01/24 12:52:07;;;;;;;5.45;3.05;;;8.80;83.80;;;;;;6288042;22;20004;-85
2023/01/24 12:54:47;;;;;;;5.03;2.85;;;8.80;83.80;;;;;;6282571;22;20003;-85
2023/01/24 12:57:38;;;;;;;4.80;2.55;;;8.80;83.70;;;;;;6284314;22;20007;-86
2023/01/24 13:00:14;;;;;;;5.32;2.72;;;8.80;83.80;;;;;;6287187;22;20030;-85
2023/01/24 13:03:06;;;;;;;4.85;2.60;;;8.80;83.70;;;;;;6286406;22;20460;-84
2023/01/24 13:05:50;;;;;;;5.03;2.60;;;8.80;83.70;;;;;;6311897;22;20011;-84
2023/01/24 13:08:48;;;;;;;4.75;2.60;;;8.80;84.20;;;;;;6312296;22;20007;-85
2023/01/24 13:11:21;;;;;;;5.43;2.90;;;8.80;83.80;;;;;;6312503;22;20493;-85
2023/01/24 13:14:05;;;;;;;5.15;2.85;;;8.80;83.70;;;;;;6285520;22;20575;-84
2023/01/24 13:17:02;;;;;;;4.60;2.47;;;8.80;83.70;;;;;;6285251;22;20003;-84
2023/01/24 13:19:55;;;;;;;5.10;2.72;;;8.80;83.80;;;;;;6245370;22;20014;-84
2023/01/24 13:22:41;;;;;;;4.30;2.40;;;8.80;83.70;;;;;;6284901;22;20015;-84
2023/01/24 13:25:45;;;;;;;5.78;2.55;;;8.80;83.70;;;;;;6284793;22;20004;-84
2023/01/24 13:28:35;;;;;;;4.60;2.60;;;8.80;83.70;;;;;;6284688;22;20014;-84
2023/01/24 13:31:10;;;;;;;4.93;2.72;;;8.80;83.70;;;;;;6316132;22;20079;-86
2023/01/24 13:33:46;;;;;;;5.57;2.85;;;8.80;83.70;;;;;;6289483;22;20011;-85
2023/01/24 13:36:22;;;;;;;5.32;2.72;;;8.80;83.70;;;;;;6286912;22;20038;-85
2023/01/24 13:38:48;;;;;;;5.13;2.72;;;8.80;83.70;;;;;;6287242;22;20434;-84
2023/01/24 13:41:36;;;;;;;5.13;2.80;;;8.80;83.80;;;;;;6288023;22;20068;-85
2023/01/24 13:44:04;;;;;;;4.10;2.28;;;8.80;83.70;;;;;;6288131;22;19999;-84
2023/01/24 13:46:58;;;;;;;4.78;2.70;;;8.80;83.70;;;;;;6288274;22;20003;-85
2023/01/24 13:49:29;;;;;;;4.55;2.50;;;8.80;83.80;;;;;;6285502;22;20390;-84
2023/01/24 13:51:56;;;;;;;4.75;2.50;;;8.80;83.80;;;;;;6285421;22;20474;-85
2023/01/24 13:54:39;;;;;;;5.20;2.80;;;8.80;83.70;;;;;;6314888;22;20003;-84